Time;durP1;ratioP1;P1;durP2;ratioP2;P2;SDS_P1;SDS_P2;PMS_P1;PMS_P2;Temp;Humidity;BMP_temperature;BMP_pressure;BME280_temperature;BME280_humidity;BME280_pressure;Samples;Min_cycle;Max_cycle;Signal;HPM_P1;HPM_P2
2022/09/01 00:01:25;;;;;;;10.82;4.65;;;;;;;;;;4933759;29;20067;-78
2022/09/01 00:03:51;;;;;;;8.85;4.85;;;;;;;;;;4935299;29;20032;-77
2022/09/01 00:06:22;;;;;;;7.93;5.05;;;;;;;;;;4931403;29;20569;-77
2022/09/01 00:08:52;;;;;;;9.77;4.57;;;;;;;;;;4929132;29;20044;-77
2022/09/01 00:11:18;;;;;;;6.82;4.40;;;;;;;;;;4932717;29;20091;-78
2022/09/01 00:13:44;;;;;;;9.00;5.05;;;;;;;;;;4932337;29;20048;-78
2022/09/01 00:16:12;;;;;;;7.38;4.53;;;;;;;;;;4933488;29;20090;-78
2022/09/01 00:18:40;;;;;;;8.23;5.00;;;;;;;;;;4934363;29;20419;-77
2022/09/01 00:21:07;;;;;;;7.60;4.50;;;;;;;;;;4929757;29;20055;-77
2022/09/01 00:23:32;;;;;;;8.13;4.60;;;;;;;;;;4928879;29;20036;-77
2022/09/01 00:25:58;;;;;;;9.93;5.00;;;;;;;;;;4929608;29;20035;-77
2022/09/01 00:28:23;;;;;;;7.85;4.43;;;;;;;;;;4933918;29;20091;-77
2022/09/01 00:30:48;;;;;;;9.02;4.80;;;;;;;;;;4932502;29;20324;-77
2022/09/01 00:33:14;;;;;;;10.40;4.72;;;;;;;;;;4932530;29;20327;-77
2022/09/01 00:35:39;;;;;;;7.38;4.63;;;;;;;;;;4929306;29;20032;-77
2022/09/01 00:38:04;;;;;;;7.63;4.43;;;;;;;;;;4929897;29;20052;-77
2022/09/01 00:40:30;;;;;;;10.70;4.70;;;;;;;;;;4927788;29;20024;-77
2022/09/01 00:42:56;;;;;;;7.32;4.50;;;;;;;;;;4934021;29;20024;-77
2022/09/01 00:45:21;;;;;;;6.55;4.60;;;;;;;;;;4933433;29;20303;-78
2022/09/01 00:47:47;;;;;;;8.30;4.60;;;;;;;;;;4933861;29;20055;-78
2022/09/01 00:50:16;;;;;;;7.32;4.57;;;;;;;;;;4933159;29;20339;-77
2022/09/01 00:52:48;;;;;;;6.88;4.50;;;;;;;;;;4932148;29;20028;-77
2022/09/01 00:55:20;;;;;;;9.95;4.82;;;;;;;;;;4928713;29;20468;-78
2022/09/01 00:57:46;;;;;;;8.90;4.60;;;;;;;;;;4929646;29;20028;-78
2022/09/01 01:00:16;;;;;;;8.38;4.90;;;;;;;;;;4934983;29;20039;-77
2022/09/01 01:02:43;;;;;;;6.50;4.68;;;;;;;;;;4930900;29;20036;-78
2022/09/01 01:05:10;;;;;;;7.50;4.85;;;;;;;;;;4928181;29;20432;-78
2022/09/01 01:07:43;;;;;;;8.77;4.70;;;;;;;;;;4942092;29;20067;-77
2022/09/01 01:10:12;;;;;;;7.63;4.60;;;;;;;;;;4949195;29;20039;-77
2022/09/01 01:12:39;;;;;;;6.38;4.55;;;;;;;;;;4946768;29;20077;-77
2022/09/01 01:15:10;;;;;;;10.23;4.93;;;;;;;;;;4930962;29;20308;-77
2022/09/01 01:17:35;;;;;;;9.00;4.93;;;;;;;;;;4946104;29;20035;-77
2022/09/01 01:23:01;;;;;;;;;;;;;;;;;;4947011;29;20050;-77
2022/09/01 01:25:28;;;;;;;8.35;4.78;;;;;;;;;;4946434;29;19921;-78
2022/09/01 01:28:21;;;;;;;13.73;4.93;;;;;;;;;;4945978;29;20050;-77
2022/09/01 01:30:52;;;;;;;9.98;4.85;;;;;;;;;;4943987;29;20346;-78
2022/09/01 01:33:21;;;;;;;7.60;4.85;;;;;;;;;;4946376;29;20028;-78
2022/09/01 01:35:47;;;;;;;7.60;4.68;;;;;;;;;;4944674;29;20028;-78
2022/09/01 01:38:14;;;;;;;6.75;5.10;;;;;;;;;;4946265;29;20075;-77
2022/09/01 01:40:40;;;;;;;8.15;4.75;;;;;;;;;;4945890;29;20095;-78
2022/09/01 01:43:06;;;;;;;7.40;4.95;;;;;;;;;;4945773;29;20031;-77
2022/09/01 01:45:31;;;;;;;7.80;4.75;;;;;;;;;;4946081;29;20028;-76
2022/09/01 01:47:58;;;;;;;7.82;4.95;;;;;;;;;;4946082;29;20044;-77
2022/09/01 01:50:28;;;;;;;8.20;4.78;;;;;;;;;;4944616;29;20039;-77
2022/09/01 01:52:54;;;;;;;8.65;4.95;;;;;;;;;;4940632;29;20099;-77
2022/09/01 01:55:22;;;;;;;9.48;4.80;;;;;;;;;;4946302;29;20120;-77
2022/09/01 01:57:48;;;;;;;8.02;5.10;;;;;;;;;;4945807;29;20635;-77
2022/09/01 02:00:19;;;;;;;7.97;5.07;;;;;;;;;;4925527;29;20028;-77
2022/09/01 02:02:51;;;;;;;9.27;5.03;;;;;;;;;;4943788;29;20079;-77
2022/09/01 02:05:23;;;;;;;7.85;4.90;;;;;;;;;;4944901;29;20019;-77
2022/09/01 02:07:54;;;;;;;7.15;5.00;;;;;;;;;;4945458;29;20339;-76
2022/09/01 02:10:24;;;;;;;7.65;5.13;;;;;;;;;;4948067;29;20031;-76
2022/09/01 02:12:50;;;;;;;12.40;5.40;;;;;;;;;;4945336;29;20099;-77
2022/09/01 02:15:15;;;;;;;8.23;5.50;;;;;;;;;;4945368;29;20031;-77
2022/09/01 02:17:42;;;;;;;7.30;4.72;;;;;;;;;;4945478;29;20151;-77
2022/09/01 02:20:08;;;;;;;9.45;5.00;;;;;;;;;;4944695;29;20024;-77
2022/09/01 02:22:36;;;;;;;7.90;5.00;;;;;;;;;;4945189;29;20071;-77
2022/09/01 02:25:03;;;;;;;8.30;5.53;;;;;;;;;;4934297;29;20309;-77
2022/09/01 02:27:28;;;;;;;8.25;5.40;;;;;;;;;;4945238;29;20223;-77
2022/09/01 02:29:54;;;;;;;9.85;4.97;;;;;;;;;;4945224;29;20039;-77
2022/09/01 02:32:20;;;;;;;7.85;5.28;;;;;;;;;;4943031;29;20027;-77
2022/09/01 02:34:52;;;;;;;8.98;5.50;;;;;;;;;;4939337;29;20058;-77
2022/09/01 02:37:24;;;;;;;7.97;5.25;;;;;;;;;;4943396;29;20028;-76
2022/09/01 02:40:00;;;;;;;8.35;5.50;;;;;;;;;;4945003;29;20031;-77
2022/09/01 02:42:26;;;;;;;8.50;5.47;;;;;;;;;;4939227;29;20023;-77
2022/09/01 02:44:56;;;;;;;9.48;5.38;;;;;;;;;;4945189;29;20032;-77
2022/09/01 02:47:22;;;;;;;8.45;5.30;;;;;;;;;;4943418;29;20023;-77
2022/09/01 02:49:49;;;;;;;9.40;5.25;;;;;;;;;;4944401;29;20238;-77
2022/09/01 02:52:16;;;;;;;8.25;5.03;;;;;;;;;;4944459;29;20028;-77
2022/09/01 02:54:44;;;;;;;10.48;5.18;;;;;;;;;;4949303;29;20031;-76
2022/09/01 02:57:11;;;;;;;18.10;5.60;;;;;;;;;;4940298;29;20026;-77
2022/09/01 02:59:36;;;;;;;12.23;5.30;;;;;;;;;;4944617;29;20076;-77
2022/09/01 03:02:02;;;;;;;7.90;5.10;;;;;;;;;;4944740;29;20032;-77
2022/09/01 03:04:28;;;;;;;9.32;5.57;;;;;;;;;;4944622;29;20034;-77
2022/09/01 03:06:57;;;;;;;10.10;5.07;;;;;;;;;;4927323;29;20322;-77
2022/09/01 03:09:22;;;;;;;7.50;5.03;;;;;;;;;;4943908;29;20086;-77
2022/09/01 03:11:51;;;;;;;6.57;5.07;;;;;;;;;;4944696;29;20340;-77
2022/09/01 03:14:17;;;;;;;9.77;5.28;;;;;;;;;;4939005;29;20374;-76
2022/09/01 03:16:43;;;;;;;9.38;5.25;;;;;;;;;;4943102;29;20042;-77
2022/09/01 03:19:10;;;;;;;11.77;5.25;;;;;;;;;;4944386;29;20035;-76
2022/09/01 03:21:39;;;;;;;11.25;5.38;;;;;;;;;;4943986;29;20397;-77
2022/09/01 03:24:07;;;;;;;8.82;5.20;;;;;;;;;;4944231;29;20024;-77
2022/09/01 03:26:35;;;;;;;7.82;4.88;;;;;;;;;;4944156;29;20032;-77
2022/09/01 03:29:00;;;;;;;13.93;5.70;;;;;;;;;;4943789;29;20027;-77
2022/09/01 03:31:27;;;;;;;11.82;5.32;;;;;;;;;;4943742;29;20375;-77
2022/09/01 03:33:55;;;;;;;10.13;4.85;;;;;;;;;;4943765;29;20027;-77
2022/09/01 03:36:22;;;;;;;6.97;5.18;;;;;;;;;;4924774;29;20036;-77
2022/09/01 03:38:49;;;;;;;7.95;5.20;;;;;;;;;;4944352;29;20055;-77
2022/09/01 03:41:17;;;;;;;9.73;4.75;;;;;;;;;;4943778;29;20052;-77
2022/09/01 03:43:43;;;;;;;9.38;5.35;;;;;;;;;;4944189;29;20040;-76
2022/09/01 03:46:11;;;;;;;11.48;5.55;;;;;;;;;;4943655;29;20094;-76
2022/09/01 03:48:37;;;;;;;7.97;4.97;;;;;;;;;;4943391;29;20296;-75
2022/09/01 03:51:03;;;;;;;8.57;4.78;;;;;;;;;;4942571;29;20039;-76
2022/09/01 03:53:36;;;;;;;9.07;5.40;;;;;;;;;;4944039;29;20032;-77
2022/09/01 03:56:03;;;;;;;7.80;4.97;;;;;;;;;;4943680;29;20036;-77
2022/09/01 03:58:29;;;;;;;10.82;5.57;;;;;;;;;;4943504;29;20024;-77
2022/09/01 04:00:59;;;;;;;7.13;4.82;;;;;;;;;;4943523;29;20211;-77
2022/09/01 04:03:27;;;;;;;7.75;5.30;;;;;;;;;;4943352;29;20027;-77
2022/09/01 04:05:53;;;;;;;9.38;5.45;;;;;;;;;;4942800;29;20031;-77
2022/09/01 04:08:24;;;;;;;8.25;5.30;;;;;;;;;;4943085;29;20035;-76
2022/09/01 04:10:52;;;;;;;10.13;4.82;;;;;;;;;;4942922;29;20369;-77
2022/09/01 04:13:23;;;;;;;8.88;5.25;;;;;;;;;;4942480;29;20201;-77
2022/09/01 04:15:49;;;;;;;9.73;5.45;;;;;;;;;;4942862;29;20031;-76
2022/09/01 04:18:19;;;;;;;11.57;5.18;;;;;;;;;;4925842;29;20024;-76
2022/09/01 04:20:56;;;;;;;8.27;5.05;;;;;;;;;;4942803;29;20059;-75
2022/09/01 04:23:29;;;;;;;7.63;5.10;;;;;;;;;;4943207;29;20342;-75
2022/09/01 04:26:13;;;;;;;7.13;5.20;;;;;;;;;;4942987;29;20027;-76
2022/09/01 04:28:45;;;;;;;10.27;5.38;;;;;;;;;;4942612;29;20359;-76
2022/09/01 04:31:17;;;;;;;6.72;4.88;;;;;;;;;;4943404;29;20235;-76
2022/09/01 04:33:45;;;;;;;11.40;5.32;;;;;;;;;;4942178;29;20043;-76
2022/09/01 04:36:28;;;;;;;8.63;5.28;;;;;;;;;;4936735;29;20035;-76
2022/09/01 04:38:57;;;;;;;10.20;5.30;;;;;;;;;;4943201;29;20024;-76
2022/09/01 04:41:26;;;;;;;8.65;5.28;;;;;;;;;;4942186;29;20062;-76
2022/09/01 04:43:55;;;;;;;16.67;5.70;;;;;;;;;;4940326;29;20035;-76
2022/09/01 04:46:21;;;;;;;11.35;5.43;;;;;;;;;;4938703;29;20128;-76
2022/09/01 04:48:46;;;;;;;11.52;5.38;;;;;;;;;;4942817;29;20040;-76
2022/09/01 04:51:14;;;;;;;13.52;5.70;;;;;;;;;;4942799;29;20048;-76
2022/09/01 04:53:41;;;;;;;13.95;5.32;;;;;;;;;;4921485;29;20155;-76
2022/09/01 04:56:08;;;;;;;11.13;5.38;;;;;;;;;;4957353;29;20026;-75
2022/09/01 04:58:35;;;;;;;7.68;5.18;;;;;;;;;;4961771;29;20030;-75
2022/09/01 05:01:06;;;;;;;7.85;5.10;;;;;;;;;;4961558;28;20030;-76
2022/09/01 05:03:31;;;;;;;11.15;5.50;;;;;;;;;;4962014;28;20031;-76
2022/09/01 05:06:02;;;;;;;8.55;5.15;;;;;;;;;;4961848;29;20031;-76
2022/09/01 05:08:27;;;;;;;227.05;12.40;;;;;;;;;;4961173;28;20078;-76
2022/09/01 05:10:55;;;;;;;192.05;12.18;;;;;;;;;;4962335;29;20023;-75
2022/09/01 05:13:22;;;;;;;124.35;9.15;;;;;;;;;;4962092;29;20039;-75
2022/09/01 05:16:00;;;;;;;69.15;8.10;;;;;;;;;;4962655;28;20038;-76
2022/09/01 05:18:26;;;;;;;38.13;6.30;;;;;;;;;;4957707;29;20031;-76
2022/09/01 05:20:53;;;;;;;32.03;6.00;;;;;;;;;;4961795;28;20374;-75
2022/09/01 05:23:19;;;;;;;12.85;5.82;;;;;;;;;;4961383;28;20111;-76
2022/09/01 05:25:48;;;;;;;8.90;5.30;;;;;;;;;;4961236;28;20035;-76
2022/09/01 05:28:17;;;;;;;8.57;4.95;;;;;;;;;;4961179;29;20031;-76
2022/09/01 05:30:44;;;;;;;7.88;4.95;;;;;;;;;;4961845;29;20032;-75
2022/09/01 05:33:15;;;;;;;11.32;4.85;;;;;;;;;;4962001;29;20058;-75
2022/09/01 05:35:43;;;;;;;10.32;5.07;;;;;;;;;;4960918;29;20023;-76
2022/09/01 05:38:11;;;;;;;9.85;4.93;;;;;;;;;;4960972;29;20031;-75
2022/09/01 05:40:39;;;;;;;10.90;5.10;;;;;;;;;;4960467;28;20042;-76
2022/09/01 05:43:11;;;;;;;10.15;4.88;;;;;;;;;;4961072;28;20028;-75
2022/09/01 05:45:40;;;;;;;9.55;4.70;;;;;;;;;;4960797;29;20034;-75
2022/09/01 05:48:08;;;;;;;14.00;4.88;;;;;;;;;;4961266;28;20062;-76
2022/09/01 05:50:34;;;;;;;8.88;4.65;;;;;;;;;;4960176;29;20110;-76
2022/09/01 05:53:09;;;;;;;11.75;5.25;;;;;;;;;;4962128;28;20031;-75
2022/09/01 05:55:37;;;;;;;9.77;5.00;;;;;;;;;;4963999;28;20027;-75
2022/09/01 05:58:03;;;;;;;9.02;4.90;;;;;;;;;;4963600;28;20042;-75
2022/09/01 06:00:33;;;;;;;8.95;4.90;;;;;;;;;;4962091;28;20026;-75
2022/09/01 06:03:03;;;;;;;6.70;4.50;;;;;;;;;;4963899;28;20030;-75
2022/09/01 06:05:30;;;;;;;9.35;5.07;;;;;;;;;;4962955;28;20027;-76
2022/09/01 06:07:56;;;;;;;10.02;4.97;;;;;;;;;;4964689;29;20086;-76
2022/09/01 06:10:21;;;;;;;10.32;4.93;;;;;;;;;;4964161;29;20050;-76
2022/09/01 06:12:46;;;;;;;9.52;4.90;;;;;;;;;;4964726;28;20031;-76
2022/09/01 06:15:14;;;;;;;12.20;5.50;;;;;;;;;;4964433;29;20039;-76
2022/09/01 06:17:40;;;;;;;15.15;5.07;;;;;;;;;;4964233;29;20081;-76
2022/09/01 06:20:09;;;;;;;11.10;5.00;;;;;;;;;;4964627;29;20326;-77
2022/09/01 06:22:35;;;;;;;9.68;4.97;;;;;;;;;;4963841;29;20027;-76
2022/09/01 06:25:00;;;;;;;8.73;4.72;;;;;;;;;;4963981;29;20045;-75
2022/09/01 06:27:26;;;;;;;9.98;5.20;;;;;;;;;;4963837;29;20335;-77
2022/09/01 06:29:53;;;;;;;10.35;4.93;;;;;;;;;;4963452;29;20047;-76
2022/09/01 06:32:19;;;;;;;10.95;4.88;;;;;;;;;;4962941;29;20035;-76
2022/09/01 06:34:50;;;;;;;11.82;5.13;;;;;;;;;;4963546;28;20111;-76
2022/09/01 06:37:16;;;;;;;8.90;5.05;;;;;;;;;;4961878;28;20382;-76
2022/09/01 06:39:42;;;;;;;7.50;4.80;;;;;;;;;;4960398;28;20035;-76
2022/09/01 06:42:12;;;;;;;10.05;5.68;;;;;;;;;;4960881;28;20027;-76
2022/09/01 06:44:37;;;;;;;8.93;5.30;;;;;;;;;;4961339;28;20038;-77
2022/09/01 06:47:03;;;;;;;10.02;5.03;;;;;;;;;;4944078;28;20031;-77
2022/09/01 06:49:35;;;;;;;8.48;5.10;;;;;;;;;;4963552;28;20048;-76
2022/09/01 06:52:02;;;;;;;11.18;5.60;;;;;;;;;;4963721;29;20035;-76
2022/09/01 06:54:30;;;;;;;11.00;5.30;;;;;;;;;;4964296;29;20023;-77
2022/09/01 06:56:57;;;;;;;8.32;5.32;;;;;;;;;;4964227;29;20210;-77
2022/09/01 06:59:26;;;;;;;8.52;5.13;;;;;;;;;;4963852;29;20029;-75
2022/09/01 07:01:53;;;;;;;8.63;4.88;;;;;;;;;;4964240;29;20050;-76
2022/09/01 07:04:20;;;;;;;9.38;4.88;;;;;;;;;;4963463;28;20127;-76
2022/09/01 07:06:50;;;;;;;8.35;4.80;;;;;;;;;;4961747;29;20162;-76
2022/09/01 07:09:17;;;;;;;10.82;5.32;;;;;;;;;;4945952;29;20070;-75
2022/09/01 07:11:43;;;;;;;8.38;5.20;;;;;;;;;;4963636;29;20215;-77
2022/09/01 07:14:10;;;;;;;9.13;5.00;;;;;;;;;;4963506;28;20042;-76
2022/09/01 07:16:39;;;;;;;8.15;5.32;;;;;;;;;;4946605;29;20323;-76
2022/09/01 07:19:13;;;;;;;8.95;5.35;;;;;;;;;;4963577;29;20019;-76
2022/09/01 07:21:40;;;;;;;10.05;5.38;;;;;;;;;;4963847;29;20381;-75
2022/09/01 07:24:05;;;;;;;6.65;4.82;;;;;;;;;;4963700;29;20046;-76
2022/09/01 07:26:34;;;;;;;8.77;5.07;;;;;;;;;;4963406;29;20023;-76
2022/09/01 07:29:02;;;;;;;8.55;5.10;;;;;;;;;;4963265;29;20023;-76
2022/09/01 07:31:35;;;;;;;8.40;5.45;;;;;;;;;;4963910;29;20043;-76
2022/09/01 07:34:04;;;;;;;7.38;4.70;;;;;;;;;;4963459;29;20027;-75
2022/09/01 07:36:31;;;;;;;8.75;5.00;;;;;;;;;;4963270;28;20035;-76
2022/09/01 07:38:56;;;;;;;11.65;5.00;;;;;;;;;;4963399;28;20023;-75
2022/09/01 07:41:23;;;;;;;8.57;5.07;;;;;;;;;;4963485;29;20239;-75
2022/09/01 07:43:54;;;;;;;9.43;5.15;;;;;;;;;;4963139;29;20019;-75
2022/09/01 07:46:22;;;;;;;10.20;5.30;;;;;;;;;;4946141;29;20026;-77
2022/09/01 07:48:48;;;;;;;8.38;4.95;;;;;;;;;;4942466;29;20039;-76
2022/09/01 07:51:18;;;;;;;10.70;5.15;;;;;;;;;;4962987;29;20027;-76
2022/09/01 07:53:47;;;;;;;8.07;5.40;;;;;;;;;;4963235;29;20031;-76
2022/09/01 07:56:14;;;;;;;9.40;5.80;;;;;;;;;;4962872;29;20023;-75
2022/09/01 07:58:40;;;;;;;8.57;5.10;;;;;;;;;;4956117;29;20187;-76
2022/09/01 08:01:16;;;;;;;8.15;4.95;;;;;;;;;;4953755;29;20468;-76
2022/09/01 08:03:41;;;;;;;10.30;5.50;;;;;;;;;;4955017;29;20019;-76
2022/09/01 08:06:09;;;;;;;10.45;5.78;;;;;;;;;;4955967;29;20034;-76
2022/09/01 08:08:36;;;;;;;7.43;5.13;;;;;;;;;;4959727;29;20414;-76
2022/09/01 08:11:02;;;;;;;7.60;4.90;;;;;;;;;;4950792;28;20057;-76
2022/09/01 08:13:28;;;;;;;7.65;5.20;;;;;;;;;;4951992;28;20054;-75
2022/09/01 08:15:53;;;;;;;8.57;5.38;;;;;;;;;;4954890;28;20463;-76
2022/09/01 08:18:18;;;;;;;8.88;4.80;;;;;;;;;;4955899;29;20372;-76
2022/09/01 08:20:46;;;;;;;8.10;5.30;;;;;;;;;;4955754;29;20034;-76
2022/09/01 08:23:14;;;;;;;9.75;5.20;;;;;;;;;;4959519;29;20027;-76
2022/09/01 08:25:41;;;;;;;7.10;4.85;;;;;;;;;;4962760;29;20086;-76
2022/09/01 08:28:07;;;;;;;10.15;5.00;;;;;;;;;;4962355;29;20023;-76
2022/09/01 08:30:32;;;;;;;8.25;4.93;;;;;;;;;;4962576;28;20315;-76
2022/09/01 08:33:00;;;;;;;8.07;4.80;;;;;;;;;;4962631;29;20020;-76
2022/09/01 08:35:28;;;;;;;9.63;4.60;;;;;;;;;;4944500;29;20094;-76
2022/09/01 08:37:54;;;;;;;7.03;4.57;;;;;;;;;;4955549;28;20094;-76
2022/09/01 08:40:22;;;;;;;7.72;4.43;;;;;;;;;;4960478;28;20031;-76
2022/09/01 08:43:11;;;;;;;5.88;4.43;;;;;;;;;;4961708;28;20082;-76
2022/09/01 08:45:47;;;;;;;9.07;4.57;;;;;;;;;;4960165;28;20069;-78
2022/09/01 08:48:17;;;;;;;9.13;4.70;;;;;;;;;;4957169;28;20043;-80
2022/09/01 08:50:46;;;;;;;7.65;4.97;;;;;;;;;;4961855;28;20073;-79
2022/09/01 08:53:23;;;;;;;7.95;4.45;;;;;;;;;;4961160;28;20027;-77
2022/09/01 08:55:54;;;;;;;9.18;4.60;;;;;;;;;;4961764;29;20350;-78
2022/09/01 08:58:20;;;;;;;7.85;4.78;;;;;;;;;;4944229;29;20122;-77
2022/09/01 09:00:57;;;;;;;9.77;4.70;;;;;;;;;;4961723;28;20027;-77
2022/09/01 09:03:45;;;;;;;8.23;4.78;;;;;;;;;;4961628;28;20023;-77
2022/09/01 09:06:24;;;;;;;9.70;5.05;;;;;;;;;;4958960;29;20479;-77
2022/09/01 09:09:02;;;;;;;9.90;4.95;;;;;;;;;;4962224;29;20050;-77
2022/09/01 09:11:30;;;;;;;8.27;4.78;;;;;;;;;;4961609;29;20080;-78
2022/09/01 09:14:33;;;;;;;9.18;4.32;;;;;;;;;;4956906;28;20034;-77
2022/09/01 09:16:59;;;;;;;9.25;4.82;;;;;;;;;;4944384;29;20326;-77
2022/09/01 09:19:27;;;;;;;6.85;4.40;;;;;;;;;;4961822;29;20019;-78
2022/09/01 09:21:55;;;;;;;8.88;4.40;;;;;;;;;;4962285;29;20023;-76
2022/09/01 09:24:51;;;;;;;7.53;4.40;;;;;;;;;;4961186;29;20027;-76
2022/09/01 09:27:19;;;;;;;;;;;;;;;;;;4961089;28;20074;-79
2022/09/01 09:29:47;;;;;;;8.70;4.30;;;;;;;;;;4965797;29;19910;-76
2022/09/01 09:32:12;;;;;;;6.45;4.32;;;;;;;;;;4964947;28;20073;-77
2022/09/01 09:34:40;;;;;;;6.80;4.45;;;;;;;;;;4965608;29;20027;-78
2022/09/01 09:37:27;;;;;;;6.47;4.00;;;;;;;;;;4948428;29;20067;-75
2022/09/01 09:40:18;;;;;;;7.07;4.38;;;;;;;;;;4960290;28;20023;-75
2022/09/01 09:42:55;;;;;;;7.75;4.18;;;;;;;;;;4956268;29;20058;-77
2022/09/01 09:45:26;;;;;;;5.15;3.90;;;;;;;;;;4964162;28;20027;-76
2022/09/01 09:47:54;;;;;;;8.13;4.20;;;;;;;;;;4964886;29;20023;-75
2022/09/01 09:50:30;;;;;;;11.05;4.22;;;;;;;;;;4964548;29;20271;-77
2022/09/01 09:53:25;;;;;;;7.78;4.05;;;;;;;;;;4963938;28;20346;-76
2022/09/01 09:55:58;;;;;;;8.10;4.07;;;;;;;;;;4961531;28;20034;-76
2022/09/01 09:58:26;;;;;;;7.13;4.05;;;;;;;;;;4960849;28;20181;-73
2022/09/01 10:01:22;;;;;;;6.78;3.80;;;;;;;;;;4964219;29;20035;-75
2022/09/01 10:03:56;;;;;;;6.90;4.13;;;;;;;;;;4951103;28;20038;-74
2022/09/01 10:06:38;;;;;;;10.30;4.10;;;;;;;;;;4963936;28;20019;-75
2022/09/01 10:09:24;;;;;;;7.68;3.63;;;;;;;;;;4964404;28;20035;-75
2022/09/01 10:11:53;;;;;;;7.72;4.15;;;;;;;;;;4953325;28;20050;-74
2022/09/01 10:14:22;;;;;;;6.85;4.00;;;;;;;;;;4964102;28;20011;-77
2022/09/01 10:16:53;;;;;;;7.35;4.03;;;;;;;;;;4964294;29;20034;-77
2022/09/01 10:19:19;;;;;;;7.70;4.00;;;;;;;;;;4955087;29;20015;-78
2022/09/01 10:21:45;;;;;;;7.85;4.18;;;;;;;;;;4964942;29;20030;-77
2022/09/01 10:24:13;;;;;;;7.15;3.88;;;;;;;;;;4940804;29;20058;-79
2022/09/01 10:26:42;;;;;;;6.13;3.80;;;;;;;;;;4964757;29;20027;-78
2022/09/01 10:29:14;;;;;;;6.43;3.67;;;;;;;;;;4958779;29;20319;-79
2022/09/01 10:31:41;;;;;;;9.75;3.90;;;;;;;;;;4956839;28;20031;-79
2022/09/01 10:34:12;;;;;;;7.78;3.80;;;;;;;;;;4963939;29;20026;-79
2022/09/01 10:36:41;;;;;;;8.23;3.80;;;;;;;;;;4964749;28;20061;-80
2022/09/01 10:39:12;;;;;;;5.45;3.53;;;;;;;;;;4963901;28;20027;-77
2022/09/01 10:41:56;;;;;;;6.93;3.80;;;;;;;;;;4961650;29;20031;-78
2022/09/01 10:44:32;;;;;;;9.43;3.10;;;;;;;;;;4964109;29;20430;-79
2022/09/01 10:47:01;;;;;;;6.90;3.38;;;;;;;;;;4964528;29;20096;-78
2022/09/01 10:49:27;;;;;;;7.90;3.50;;;;;;;;;;4963722;29;20058;-78
2022/09/01 10:51:54;;;;;;;6.15;3.20;;;;;;;;;;4964462;29;20096;-78
2022/09/01 10:54:52;;;;;;;5.25;3.17;;;;;;;;;;4964271;29;20019;-78
2022/09/01 10:57:17;;;;;;;5.65;3.30;;;;;;;;;;4942321;29;20058;-77
2022/09/01 10:59:42;;;;;;;4.93;3.17;;;;;;;;;;4963359;29;20297;-77
2022/09/01 11:02:19;;;;;;;7.50;3.10;;;;;;;;;;4941965;29;20038;-77
2022/09/01 11:04:45;;;;;;;5.85;3.00;;;;;;;;;;4945523;29;20035;-78
2022/09/01 11:07:32;;;;;;;4.28;2.90;;;;;;;;;;4958792;29;20251;-77
2022/09/01 11:10:19;;;;;;;6.05;2.78;;;;;;;;;;4944500;29;20251;-77
2022/09/01 11:13:20;;;;;;;8.80;2.95;;;;;;;;;;4958236;29;20023;-78
2022/09/01 11:15:47;;;;;;;4.80;2.55;;;;;;;;;;4962601;29;20030;-78
2022/09/01 11:18:25;;;;;;;5.45;2.70;;;;;;;;;;4960477;29;20038;-77
2022/09/01 11:20:51;;;;;;;4.57;2.50;;;;;;;;;;4960279;29;20061;-78
2022/09/01 11:23:26;;;;;;;5.63;2.55;;;;;;;;;;4963658;29;20397;-77
2022/09/01 11:26:21;;;;;;;8.90;2.90;;;;;;;;;;4957757;29;20062;-78
2022/09/01 11:28:47;;;;;;;3.55;2.50;;;;;;;;;;4960813;28;20086;-77
2022/09/01 21:07:28;;;;;;;6.70;3.50;;;;;;;;;;6061044;23;20025;31
2022/09/01 21:10:24;;;;;;;12.35;3.13;;;;;;;;;;4922333;29;20154;-79
2022/09/01 21:13:15;;;;;;;5.07;3.05;;;;;;;;;;4906593;29;20349;-80
2022/09/01 21:16:17;;;;;;;7.30;3.13;;;;;;;;;;4920553;29;20036;-78
2022/09/01 21:18:53;;;;;;;5.07;2.90;;;;;;;;;;4922303;29;20020;-78
2022/09/01 21:21:55;;;;;;;4.85;3.00;;;;;;;;;;4923907;29;20095;-77
2022/09/01 21:24:21;;;;;;;5.80;3.20;;;;;;;;;;4925825;29;20197;-79
2022/09/01 21:26:47;;;;;;;5.25;3.10;;;;;;;;;;4928011;29;20335;-78
2022/09/01 21:29:35;;;;;;;4.05;2.95;;;;;;;;;;4922164;29;20031;-78
2022/09/01 21:32:01;;;;;;;5.45;3.40;;;;;;;;;;4923470;29;20301;-78
2022/09/01 21:34:26;;;;;;;10.02;3.05;;;;;;;;;;4927761;29;20053;-77
2022/09/01 21:36:51;;;;;;;6.75;3.22;;;;;;;;;;4927693;29;20020;-77
2022/09/01 21:39:18;;;;;;;5.40;3.10;;;;;;;;;;4927604;29;20020;-78
2022/09/01 21:41:44;;;;;;;5.03;3.00;;;;;;;;;;4927501;29;20340;-75
2022/09/01 21:44:10;;;;;;;4.85;3.20;;;;;;;;;;4927104;29;20185;-76
2022/09/01 21:46:35;;;;;;;5.10;3.17;;;;;;;;;;4923164;29;20039;-79
2022/09/01 21:49:01;;;;;;;7.10;3.08;;;;;;;;;;4924618;29;20332;-79
2022/09/01 21:51:26;;;;;;;5.55;3.20;;;;;;;;;;4925375;29;20068;-77
2022/09/01 21:53:52;;;;;;;4.28;3.00;;;;;;;;;;4926487;29;20067;-78
2022/09/01 21:56:17;;;;;;;4.50;3.03;;;;;;;;;;4926417;29;20257;-79
2022/09/01 21:58:42;;;;;;;4.55;3.00;;;;;;;;;;4926824;29;20157;-78
2022/09/01 22:01:08;;;;;;;5.00;2.85;;;;;;;;;;4927417;29;20052;-78
2022/09/01 22:03:34;;;;;;;4.45;3.05;;;;;;;;;;4920056;29;20024;-78
2022/09/01 22:06:00;;;;;;;4.78;3.17;;;;;;;;;;4919422;29;20031;-78
2022/09/01 22:08:25;;;;;;;4.75;2.72;;;;;;;;;;4918780;29;20478;-78
2022/09/01 22:10:53;;;;;;;6.80;2.92;;;;;;;;;;4919471;29;20036;-78
2022/09/01 22:13:21;;;;;;;4.65;3.00;;;;;;;;;;4891169;29;20316;-78
2022/09/01 22:15:50;;;;;;;6.10;3.20;;;;;;;;;;4918548;29;20341;-79
2022/09/01 22:18:16;;;;;;;8.23;2.80;;;;;;;;;;4918703;29;20046;-79
2022/09/01 22:20:43;;;;;;;5.50;3.00;;;;;;;;;;4917350;29;20110;-79
2022/09/01 22:23:10;;;;;;;4.60;2.90;;;;;;;;;;4920801;29;20036;-78
2022/09/01 22:25:43;;;;;;;6.53;2.90;;;;;;;;;;4925227;29;20351;-77
2022/09/01 22:28:09;;;;;;;6.85;2.80;;;;;;;;;;4924228;29;20075;-78
2022/09/01 22:30:35;;;;;;;5.28;2.95;;;;;;;;;;4923583;29;20075;-78
2022/09/01 22:33:06;;;;;;;4.47;2.80;;;;;;;;;;4925252;29;20043;-78
2022/09/01 22:35:32;;;;;;;6.57;3.30;;;;;;;;;;4923312;29;20030;-78
2022/09/01 22:37:57;;;;;;;3.90;2.70;;;;;;;;;;4921852;29;20095;-77
2022/09/01 22:40:22;;;;;;;3.80;2.72;;;;;;;;;;4924357;29;20482;-78
2022/09/01 22:42:49;;;;;;;4.30;2.97;;;;;;;;;;4925039;29;20606;-78
2022/09/01 22:45:15;;;;;;;5.03;2.72;;;;;;;;;;4925077;29;20381;-77
2022/09/01 22:47:41;;;;;;;4.10;2.80;;;;;;;;;;4922189;29;20339;-78
2022/09/01 22:50:08;;;;;;;6.53;3.00;;;;;;;;;;4925216;29;20036;-78
2022/09/01 22:52:34;;;;;;;3.10;2.63;;;;;;;;;;4923774;29;20672;-77
2022/09/01 22:55:01;;;;;;;5.55;3.00;;;;;;;;;;4923796;29;20071;-78
2022/09/01 22:57:27;;;;;;;5.07;3.00;;;;;;;;;;4922204;29;20099;-78
2022/09/01 22:59:52;;;;;;;5.22;3.00;;;;;;;;;;4923772;29;20020;-78
2022/09/01 23:02:18;;;;;;;6.03;3.00;;;;;;;;;;4923735;29;20467;-78
2022/09/01 23:04:45;;;;;;;3.97;2.80;;;;;;;;;;4922223;29;20364;-78
2022/09/01 23:07:10;;;;;;;4.28;2.70;;;;;;;;;;4922501;29;20043;-78
2022/09/01 23:09:36;;;;;;;4.25;3.10;;;;;;;;;;4922200;29;20240;-78
2022/09/01 23:12:02;;;;;;;3.72;2.90;;;;;;;;;;4922773;29;20216;-78
2022/09/01 23:14:27;;;;;;;5.97;2.90;;;;;;;;;;4923864;29;20028;-78
2022/09/01 23:16:53;;;;;;;5.40;2.90;;;;;;;;;;4923040;29;20042;-78
2022/09/01 23:19:19;;;;;;;4.93;2.85;;;;;;;;;;4922395;29;20043;-79
2022/09/01 23:21:46;;;;;;;4.82;2.90;;;;;;;;;;4922529;29;20031;-79
2022/09/01 23:24:12;;;;;;;7.03;2.90;;;;;;;;;;4924295;29;20058;-78
2022/09/01 23:26:37;;;;;;;5.13;2.90;;;;;;;;;;4923503;29;20036;-78
2022/09/01 23:29:04;;;;;;;4.45;3.20;;;;;;;;;;4906586;29;20024;-78
2022/09/01 23:31:33;;;;;;;4.20;3.08;;;;;;;;;;4923813;29;20028;-78
2022/09/01 23:33:58;;;;;;;4.45;3.00;;;;;;;;;;4923103;29;20027;-78
2022/09/01 23:36:27;;;;;;;3.92;2.90;;;;;;;;;;4922735;29;20090;-78
2022/09/01 23:38:56;;;;;;;4.05;3.10;;;;;;;;;;4924612;29;20121;-78
2022/09/01 23:41:28;;;;;;;3.65;3.10;;;;;;;;;;4924019;29;20030;-79
2022/09/01 23:43:54;;;;;;;4.28;3.00;;;;;;;;;;4922185;29;20031;-79
2022/09/01 23:46:26;;;;;;;6.88;2.95;;;;;;;;;;4921968;29;20091;-79
2022/09/01 23:48:52;;;;;;;5.07;3.17;;;;;;;;;;4923892;29;20103;-78
2022/09/01 23:51:18;;;;;;;5.65;3.10;;;;;;;;;;4923962;29;20031;-79
2022/09/01 23:53:44;;;;;;;6.18;3.20;;;;;;;;;;4923566;29;20095;-78
2022/09/01 23:56:15;;;;;;;5.78;3.20;;;;;;;;;;4924668;29;20331;-78
2022/09/01 23:58:41;;;;;;;5.30;3.20;;;;;;;;;;4923694;29;20028;-78
